sensor_id;sensor_type;location;lat;lon;timestamp;P1;durP1;ratioP1;P2;durP2;ratioP2
29202;SDS011;16245;51.170;4.884;2022-10-10T00:02:13;8.68;;;5.03;;
29202;SDS011;16245;51.170;4.884;2022-10-10T00:04:39;6.00;;;4.40;;
29202;SDS011;16245;51.170;4.884;2022-10-10T00:07:05;9.60;;;5.00;;
29202;SDS011;16245;51.170;4.884;2022-10-10T00:09:30;9.45;;;5.05;;
29202;SDS011;16245;51.170;4.884;2022-10-10T00:11:56;8.45;;;4.60;;
29202;SDS011;16245;51.170;4.884;2022-10-10T00:14:22;6.65;;;4.75;;
29202;SDS011;16245;51.170;4.884;2022-10-10T00:16:47;6.28;;;4.70;;
29202;SDS011;16245;51.170;4.884;2022-10-10T00:19:13;6.30;;;3.92;;
29202;SDS011;16245;51.170;4.884;2022-10-10T00:21:39;9.57;;;4.97;;
29202;SDS011;16245;51.170;4.884;2022-10-10T00:24:06;9.75;;;4.65;;
29202;SDS011;16245;51.170;4.884;2022-10-10T00:26:32;8.23;;;4.70;;
29202;SDS011;16245;51.170;4.884;2022-10-10T00:28:57;5.68;;;4.78;;
29202;SDS011;16245;51.170;4.884;2022-10-10T00:31:23;5.90;;;4.75;;
29202;SDS011;16245;51.170;4.884;2022-10-10T00:33:49;6.25;;;4.78;;
29202;SDS011;16245;51.170;4.884;2022-10-10T00:36:14;7.07;;;4.70;;
29202;SDS011;16245;51.170;4.884;2022-10-10T00:38:40;8.35;;;4.65;;
29202;SDS011;16245;51.170;4.884;2022-10-10T00:41:06;6.05;;;4.43;;
29202;SDS011;16245;51.170;4.884;2022-10-10T00:43:32;4.90;;;4.30;;
29202;SDS011;16245;51.170;4.884;2022-10-10T00:45:58;6.25;;;4.18;;
29202;SDS011;16245;51.170;4.884;2022-10-10T00:51:06;6.97;;;4.80;;
29202;SDS011;16245;51.170;4.884;2022-10-10T00:53:37;6.13;;;4.10;;
29202;SDS011;16245;51.170;4.884;2022-10-10T00:56:06;7.72;;;4.53;;
29202;SDS011;16245;51.170;4.884;2022-10-10T00:58:34;8.18;;;4.55;;
29202;SDS011;16245;51.170;4.884;2022-10-10T01:01:03;6.72;;;4.28;;
29202;SDS011;16245;51.170;4.884;2022-10-10T01:03:30;7.00;;;4.50;;
29202;SDS011;16245;51.170;4.884;2022-10-10T01:05:56;6.85;;;4.22;;
29202;SDS011;16245;51.170;4.884;2022-10-10T01:08:21;7.88;;;4.85;;
29202;SDS011;16245;51.170;4.884;2022-10-10T01:11:34;8.10;;;4.80;;
29202;SDS011;16245;51.170;4.884;2022-10-10T01:13:59;5.90;;;4.30;;
29202;SDS011;16245;51.170;4.884;2022-10-10T01:16:53;9.05;;;4.15;;
29202;SDS011;16245;51.170;4.884;2022-10-10T01:25:31;7.25;;;4.63;;
29202;SDS011;16245;51.170;4.884;2022-10-10T01:30:59;6.63;;;4.80;;
29202;SDS011;16245;51.170;4.884;2022-10-10T01:33:28;8.77;;;5.10;;
29202;SDS011;16245;51.170;4.884;2022-10-10T01:43:38;9.82;;;5.78;;
29202;SDS011;16245;51.170;4.884;2022-10-10T01:46:11;9.18;;;5.18;;
29202;SDS011;16245;51.170;4.884;2022-10-10T01:48:40;8.15;;;5.25;;
29202;SDS011;16245;51.170;4.884;2022-10-10T01:53:45;10.13;;;5.05;;
29202;SDS011;16245;51.170;4.884;2022-10-10T01:59:18;11.32;;;5.78;;
29202;SDS011;16245;51.170;4.884;2022-10-10T02:01:54;8.02;;;4.97;;
29202;SDS011;16245;51.170;4.884;2022-10-10T02:04:28;8.15;;;4.75;;
29202;SDS011;16245;51.170;4.884;2022-10-10T02:07:27;9.18;;;5.30;;
29202;SDS011;16245;51.170;4.884;2022-10-10T02:09:58;11.27;;;5.28;;
29202;SDS011;16245;51.170;4.884;2022-10-10T02:12:26;11.15;;;5.22;;
29202;SDS011;16245;51.170;4.884;2022-10-10T02:14:54;8.07;;;5.45;;
29202;SDS011;16245;51.170;4.884;2022-10-10T02:17:25;12.60;;;5.63;;
29202;SDS011;16245;51.170;4.884;2022-10-10T02:19:52;9.77;;;5.38;;
29202;SDS011;16245;51.170;4.884;2022-10-10T02:22:20;10.02;;;5.07;;
29202;SDS011;16245;51.170;4.884;2022-10-10T02:24:49;7.75;;;5.07;;
29202;SDS011;16245;51.170;4.884;2022-10-10T02:30:02;7.07;;;4.85;;
29202;SDS011;16245;51.170;4.884;2022-10-10T02:32:35;7.00;;;5.45;;
29202;SDS011;16245;51.170;4.884;2022-10-10T02:35:06;12.60;;;5.25;;
29202;SDS011;16245;51.170;4.884;2022-10-10T02:37:52;8.50;;;5.40;;
29202;SDS011;16245;51.170;4.884;2022-10-10T02:40:20;7.55;;;4.90;;
29202;SDS011;16245;51.170;4.884;2022-10-10T02:42:48;8.48;;;5.10;;
29202;SDS011;16245;51.170;4.884;2022-10-10T02:45:15;8.55;;;4.88;;
29202;SDS011;16245;51.170;4.884;2022-10-10T02:47:43;8.75;;;5.53;;
29202;SDS011;16245;51.170;4.884;2022-10-10T02:50:09;8.05;;;5.07;;
29202;SDS011;16245;51.170;4.884;2022-10-10T02:52:35;8.88;;;5.13;;
29202;SDS011;16245;51.170;4.884;2022-10-10T02:55:01;5.47;;;4.50;;
29202;SDS011;16245;51.170;4.884;2022-10-10T02:57:26;7.82;;;4.97;;
29202;SDS011;16245;51.170;4.884;2022-10-10T02:59:52;7.50;;;5.10;;
29202;SDS011;16245;51.170;4.884;2022-10-10T03:02:18;9.13;;;5.20;;
29202;SDS011;16245;51.170;4.884;2022-10-10T03:04:43;7.13;;;4.45;;
29202;SDS011;16245;51.170;4.884;2022-10-10T03:07:09;8.65;;;4.78;;
29202;SDS011;16245;51.170;4.884;2022-10-10T03:09:35;8.13;;;4.75;;
29202;SDS011;16245;51.170;4.884;2022-10-10T03:12:01;9.82;;;4.90;;
29202;SDS011;16245;51.170;4.884;2022-10-10T03:14:26;6.88;;;4.85;;
29202;SDS011;16245;51.170;4.884;2022-10-10T03:16:52;8.68;;;4.90;;
29202;SDS011;16245;51.170;4.884;2022-10-10T03:19:18;7.47;;;4.72;;
29202;SDS011;16245;51.170;4.884;2022-10-10T03:21:44;12.23;;;4.57;;
29202;SDS011;16245;51.170;4.884;2022-10-10T03:24:09;6.03;;;4.55;;
29202;SDS011;16245;51.170;4.884;2022-10-10T03:26:35;7.95;;;5.50;;
29202;SDS011;16245;51.170;4.884;2022-10-10T03:29:01;10.77;;;4.40;;
29202;SDS011;16245;51.170;4.884;2022-10-10T03:31:27;9.55;;;4.88;;
29202;SDS011;16245;51.170;4.884;2022-10-10T03:33:53;7.35;;;4.72;;
29202;SDS011;16245;51.170;4.884;2022-10-10T03:36:19;6.85;;;4.63;;
29202;SDS011;16245;51.170;4.884;2022-10-10T03:38:45;9.88;;;4.78;;
29202;SDS011;16245;51.170;4.884;2022-10-10T03:41:11;7.80;;;4.57;;
29202;SDS011;16245;51.170;4.884;2022-10-10T03:43:36;7.32;;;4.93;;
29202;SDS011;16245;51.170;4.884;2022-10-10T03:46:02;9.15;;;4.65;;
29202;SDS011;16245;51.170;4.884;2022-10-10T03:48:28;7.75;;;4.80;;
29202;SDS011;16245;51.170;4.884;2022-10-10T03:50:55;9.60;;;4.97;;
29202;SDS011;16245;51.170;4.884;2022-10-10T03:53:21;8.75;;;4.32;;
29202;SDS011;16245;51.170;4.884;2022-10-10T03:55:46;5.53;;;4.40;;
29202;SDS011;16245;51.170;4.884;2022-10-10T03:58:12;8.50;;;5.10;;
29202;SDS011;16245;51.170;4.884;2022-10-10T04:00:38;7.10;;;5.57;;
29202;SDS011;16245;51.170;4.884;2022-10-10T04:03:03;10.48;;;4.93;;
29202;SDS011;16245;51.170;4.884;2022-10-10T04:05:36;9.48;;;4.82;;
29202;SDS011;16245;51.170;4.884;2022-10-10T04:08:04;10.40;;;4.70;;
29202;SDS011;16245;51.170;4.884;2022-10-10T04:10:30;6.65;;;4.85;;
29202;SDS011;16245;51.170;4.884;2022-10-10T04:12:56;6.28;;;4.63;;
29202;SDS011;16245;51.170;4.884;2022-10-10T04:15:22;7.95;;;5.18;;
29202;SDS011;16245;51.170;4.884;2022-10-10T04:17:49;8.98;;;4.65;;
29202;SDS011;16245;51.170;4.884;2022-10-10T04:20:15;7.47;;;4.97;;
29202;SDS011;16245;51.170;4.884;2022-10-10T04:22:42;8.85;;;5.15;;
29202;SDS011;16245;51.170;4.884;2022-10-10T04:25:08;8.13;;;4.43;;
29202;SDS011;16245;51.170;4.884;2022-10-10T04:27:35;8.70;;;4.85;;
29202;SDS011;16245;51.170;4.884;2022-10-10T04:30:00;10.18;;;4.78;;
29202;SDS011;16245;51.170;4.884;2022-10-10T04:32:26;7.88;;;5.65;;
29202;SDS011;16245;51.170;4.884;2022-10-10T04:34:52;4.97;;;4.47;;
29202;SDS011;16245;51.170;4.884;2022-10-10T04:37:17;7.50;;;4.68;;
29202;SDS011;16245;51.170;4.884;2022-10-10T04:39:43;9.68;;;4.88;;
29202;SDS011;16245;51.170;4.884;2022-10-10T04:42:09;9.15;;;5.68;;
29202;SDS011;16245;51.170;4.884;2022-10-10T04:44:35;8.90;;;4.85;;
29202;SDS011;16245;51.170;4.884;2022-10-10T04:47:01;9.15;;;4.22;;
29202;SDS011;16245;51.170;4.884;2022-10-10T04:49:27;9.32;;;4.63;;
29202;SDS011;16245;51.170;4.884;2022-10-10T04:51:52;7.20;;;4.97;;
29202;SDS011;16245;51.170;4.884;2022-10-10T04:54:18;7.60;;;4.55;;
29202;SDS011;16245;51.170;4.884;2022-10-10T04:56:44;5.95;;;4.53;;
29202;SDS011;16245;51.170;4.884;2022-10-10T04:59:10;9.15;;;4.93;;
29202;SDS011;16245;51.170;4.884;2022-10-10T05:01:36;8.57;;;4.45;;
29202;SDS011;16245;51.170;4.884;2022-10-10T05:04:01;7.03;;;4.70;;
29202;SDS011;16245;51.170;4.884;2022-10-10T05:06:27;8.82;;;5.03;;
29202;SDS011;16245;51.170;4.884;2022-10-10T05:08:53;7.10;;;4.45;;
29202;SDS011;16245;51.170;4.884;2022-10-10T05:11:19;5.93;;;4.20;;
29202;SDS011;16245;51.170;4.884;2022-10-10T05:13:44;5.80;;;4.43;;
29202;SDS011;16245;51.170;4.884;2022-10-10T05:16:10;8.23;;;4.93;;
29202;SDS011;16245;51.170;4.884;2022-10-10T05:18:36;8.27;;;4.95;;
29202;SDS011;16245;51.170;4.884;2022-10-10T05:21:03;4.97;;;4.22;;
29202;SDS011;16245;51.170;4.884;2022-10-10T05:23:31;6.97;;;5.35;;
29202;SDS011;16245;51.170;4.884;2022-10-10T05:25:57;9.38;;;4.90;;
29202;SDS011;16245;51.170;4.884;2022-10-10T05:28:23;8.95;;;5.22;;
29202;SDS011;16245;51.170;4.884;2022-10-10T05:30:49;8.80;;;4.88;;
29202;SDS011;16245;51.170;4.884;2022-10-10T05:33:16;9.57;;;6.35;;
29202;SDS011;16245;51.170;4.884;2022-10-10T05:35:42;7.05;;;5.10;;
29202;SDS011;16245;51.170;4.884;2022-10-10T05:38:08;9.15;;;4.28;;
29202;SDS011;16245;51.170;4.884;2022-10-10T05:40:34;7.15;;;4.70;;
29202;SDS011;16245;51.170;4.884;2022-10-10T05:43:02;7.18;;;5.70;;
29202;SDS011;16245;51.170;4.884;2022-10-10T05:45:28;17.05;;;7.68;;
29202;SDS011;16245;51.170;4.884;2022-10-10T05:47:54;15.65;;;7.70;;
29202;SDS011;16245;51.170;4.884;2022-10-10T05:52:54;16.60;;;8.00;;
29202;SDS011;16245;51.170;4.884;2022-10-10T05:55:20;16.10;;;6.50;;
29202;SDS011;16245;51.170;4.884;2022-10-10T05:57:45;7.90;;;5.95;;
29202;SDS011;16245;51.170;4.884;2022-10-10T06:00:11;12.43;;;6.18;;
29202;SDS011;16245;51.170;4.884;2022-10-10T06:02:37;7.03;;;5.25;;
29202;SDS011;16245;51.170;4.884;2022-10-10T06:05:03;7.97;;;5.78;;
29202;SDS011;16245;51.170;4.884;2022-10-10T06:07:29;10.48;;;5.60;;
29202;SDS011;16245;51.170;4.884;2022-10-10T06:09:55;6.72;;;5.30;;
29202;SDS011;16245;51.170;4.884;2022-10-10T06:12:20;7.07;;;4.30;;
29202;SDS011;16245;51.170;4.884;2022-10-10T06:14:46;7.95;;;4.55;;
29202;SDS011;16245;51.170;4.884;2022-10-10T06:17:11;8.20;;;5.38;;
29202;SDS011;16245;51.170;4.884;2022-10-10T06:19:37;7.38;;;4.93;;
29202;SDS011;16245;51.170;4.884;2022-10-10T06:22:03;7.93;;;4.68;;
29202;SDS011;16245;51.170;4.884;2022-10-10T06:24:29;9.32;;;5.43;;
29202;SDS011;16245;51.170;4.884;2022-10-10T06:26:55;8.65;;;5.40;;
29202;SDS011;16245;51.170;4.884;2022-10-10T06:29:20;6.68;;;5.38;;
29202;SDS011;16245;51.170;4.884;2022-10-10T06:31:46;11.52;;;5.13;;
29202;SDS011;16245;51.170;4.884;2022-10-10T06:34:12;9.13;;;5.20;;
29202;SDS011;16245;51.170;4.884;2022-10-10T06:36:37;9.68;;;5.22;;
29202;SDS011;16245;51.170;4.884;2022-10-10T06:39:03;8.80;;;6.15;;
29202;SDS011;16245;51.170;4.884;2022-10-10T06:41:29;8.52;;;5.53;;
29202;SDS011;16245;51.170;4.884;2022-10-10T06:43:54;10.18;;;5.70;;
29202;SDS011;16245;51.170;4.884;2022-10-10T06:46:20;8.13;;;5.57;;
29202;SDS011;16245;51.170;4.884;2022-10-10T06:48:46;12.30;;;6.93;;
29202;SDS011;16245;51.170;4.884;2022-10-10T06:51:13;10.65;;;6.00;;
29202;SDS011;16245;51.170;4.884;2022-10-10T06:53:40;12.45;;;6.25;;
29202;SDS011;16245;51.170;4.884;2022-10-10T06:56:07;11.65;;;6.13;;
29202;SDS011;16245;51.170;4.884;2022-10-10T06:58:34;18.13;;;7.00;;
29202;SDS011;16245;51.170;4.884;2022-10-10T07:01:00;11.13;;;5.65;;
29202;SDS011;16245;51.170;4.884;2022-10-10T07:03:28;11.38;;;6.35;;
29202;SDS011;16245;51.170;4.884;2022-10-10T07:05:56;15.43;;;5.57;;
29202;SDS011;16245;51.170;4.884;2022-10-10T07:08:23;7.90;;;5.63;;
29202;SDS011;16245;51.170;4.884;2022-10-10T07:10:50;8.48;;;5.05;;
29202;SDS011;16245;51.170;4.884;2022-10-10T07:13:16;7.45;;;4.07;;
29202;SDS011;16245;51.170;4.884;2022-10-10T07:15:42;10.35;;;4.22;;
29202;SDS011;16245;51.170;4.884;2022-10-10T07:18:08;10.70;;;4.10;;
29202;SDS011;16245;51.170;4.884;2022-10-10T07:20:34;10.20;;;4.43;;
29202;SDS011;16245;51.170;4.884;2022-10-10T07:23:00;9.57;;;4.22;;
29202;SDS011;16245;51.170;4.884;2022-10-10T07:25:27;8.27;;;4.07;;
29202;SDS011;16245;51.170;4.884;2022-10-10T07:27:53;7.20;;;3.35;;
29202;SDS011;16245;51.170;4.884;2022-10-10T07:30:18;5.15;;;3.72;;
29202;SDS011;16245;51.170;4.884;2022-10-10T07:32:44;6.50;;;3.88;;
29202;SDS011;16245;51.170;4.884;2022-10-10T07:35:10;8.52;;;4.00;;
29202;SDS011;16245;51.170;4.884;2022-10-10T07:37:36;7.97;;;4.50;;
29202;SDS011;16245;51.170;4.884;2022-10-10T07:40:03;9.15;;;4.57;;
29202;SDS011;16245;51.170;4.884;2022-10-10T07:42:29;8.02;;;3.70;;
29202;SDS011;16245;51.170;4.884;2022-10-10T07:44:55;9.15;;;4.10;;
29202;SDS011;16245;51.170;4.884;2022-10-10T07:47:21;7.50;;;4.15;;
29202;SDS011;16245;51.170;4.884;2022-10-10T07:49:47;9.88;;;4.68;;
29202;SDS011;16245;51.170;4.884;2022-10-10T07:52:12;9.50;;;3.67;;
29202;SDS011;16245;51.170;4.884;2022-10-10T07:54:38;8.20;;;4.22;;
29202;SDS011;16245;51.170;4.884;2022-10-10T07:57:03;7.97;;;4.25;;
29202;SDS011;16245;51.170;4.884;2022-10-10T07:59:29;7.88;;;4.30;;
29202;SDS011;16245;51.170;4.884;2022-10-10T08:01:55;6.13;;;3.80;;
29202;SDS011;16245;51.170;4.884;2022-10-10T08:04:20;9.70;;;3.85;;
29202;SDS011;16245;51.170;4.884;2022-10-10T08:06:46;8.60;;;4.45;;
29202;SDS011;16245;51.170;4.884;2022-10-10T08:09:12;7.75;;;4.28;;
29202;SDS011;16245;51.170;4.884;2022-10-10T08:11:38;8.68;;;4.85;;
29202;SDS011;16245;51.170;4.884;2022-10-10T08:14:03;10.00;;;4.60;;
29202;SDS011;16245;51.170;4.884;2022-10-10T08:16:29;9.35;;;4.75;;
29202;SDS011;16245;51.170;4.884;2022-10-10T08:18:55;7.95;;;4.15;;
29202;SDS011;16245;51.170;4.884;2022-10-10T08:21:21;7.93;;;4.20;;
29202;SDS011;16245;51.170;4.884;2022-10-10T08:23:47;11.82;;;4.30;;
29202;SDS011;16245;51.170;4.884;2022-10-10T08:26:13;11.18;;;4.25;;
29202;SDS011;16245;51.170;4.884;2022-10-10T08:28:46;9.50;;;3.90;;
29202;SDS011;16245;51.170;4.884;2022-10-10T08:31:16;7.47;;;3.97;;
29202;SDS011;16245;51.170;4.884;2022-10-10T08:33:43;7.75;;;3.40;;
29202;SDS011;16245;51.170;4.884;2022-10-10T08:36:14;10.45;;;3.50;;
29202;SDS011;16245;51.170;4.884;2022-10-10T08:38:47;8.07;;;3.92;;
29202;SDS011;16245;51.170;4.884;2022-10-10T08:43:48;9.70;;;4.15;;
29202;SDS011;16245;51.170;4.884;2022-10-10T08:46:30;7.88;;;4.00;;
29202;SDS011;16245;51.170;4.884;2022-10-10T08:49:06;5.65;;;3.35;;
29202;SDS011;16245;51.170;4.884;2022-10-10T08:52:05;6.05;;;3.08;;
29202;SDS011;16245;51.170;4.884;2022-10-10T08:54:49;8.82;;;4.15;;
29202;SDS011;16245;51.170;4.884;2022-10-10T08:57:24;9.20;;;3.92;;
29202;SDS011;16245;51.170;4.884;2022-10-10T08:59:51;10.90;;;4.28;;
29202;SDS011;16245;51.170;4.884;2022-10-10T09:02:31;9.07;;;3.67;;
29202;SDS011;16245;51.170;4.884;2022-10-10T09:05:16;8.30;;;3.22;;
29202;SDS011;16245;51.170;4.884;2022-10-10T09:07:49;11.43;;;4.57;;
29202;SDS011;16245;51.170;4.884;2022-10-10T09:10:31;8.88;;;3.58;;
29202;SDS011;16245;51.170;4.884;2022-10-10T09:13:18;7.88;;;4.05;;
29202;SDS011;16245;51.170;4.884;2022-10-10T09:15:57;8.57;;;3.20;;
29202;SDS011;16245;51.170;4.884;2022-10-10T09:18:49;9.30;;;3.67;;
29202;SDS011;16245;51.170;4.884;2022-10-10T09:21:40;9.63;;;3.08;;
29202;SDS011;16245;51.170;4.884;2022-10-10T09:24:33;11.93;;;4.05;;
29202;SDS011;16245;51.170;4.884;2022-10-10T09:27:04;6.55;;;3.38;;
29202;SDS011;16245;51.170;4.884;2022-10-10T09:29:42;10.05;;;4.53;;
29202;SDS011;16245;51.170;4.884;2022-10-10T09:32:16;13.27;;;4.53;;
29202;SDS011;16245;51.170;4.884;2022-10-10T09:37:49;12.40;;;4.43;;
29202;SDS011;16245;51.170;4.884;2022-10-10T09:42:52;10.77;;;3.92;;
29202;SDS011;16245;51.170;4.884;2022-10-10T09:45:27;10.30;;;3.35;;
29202;SDS011;16245;51.170;4.884;2022-10-10T09:47:56;6.55;;;3.40;;
29202;SDS011;16245;51.170;4.884;2022-10-10T09:50:22;10.27;;;4.28;;
29202;SDS011;16245;51.170;4.884;2022-10-10T09:52:49;8.77;;;3.92;;
29202;SDS011;16245;51.170;4.884;2022-10-10T09:57:51;9.30;;;4.15;;
29202;SDS011;16245;51.170;4.884;2022-10-10T10:02:48;12.43;;;4.50;;
29202;SDS011;16245;51.170;4.884;2022-10-10T10:05:27;10.50;;;3.65;;
29202;SDS011;16245;51.170;4.884;2022-10-10T10:07:53;8.82;;;3.85;;
29202;SDS011;16245;51.170;4.884;2022-10-10T10:10:20;9.75;;;3.40;;
29202;SDS011;16245;51.170;4.884;2022-10-10T10:12:51;8.68;;;4.20;;
29202;SDS011;16245;51.170;4.884;2022-10-10T10:15:25;7.05;;;4.07;;
29202;SDS011;16245;51.170;4.884;2022-10-10T10:18:19;8.70;;;3.67;;
29202;SDS011;16245;51.170;4.884;2022-10-10T10:20:53;8.35;;;3.22;;
29202;SDS011;16245;51.170;4.884;2022-10-10T10:23:32;8.70;;;3.65;;
29202;SDS011;16245;51.170;4.884;2022-10-10T10:25:58;11.80;;;3.97;;
29202;SDS011;16245;51.170;4.884;2022-10-10T10:28:41;12.65;;;4.65;;
29202;SDS011;16245;51.170;4.884;2022-10-10T10:31:12;10.18;;;3.78;;
29202;SDS011;16245;51.170;4.884;2022-10-10T10:33:48;6.88;;;3.90;;
29202;SDS011;16245;51.170;4.884;2022-10-10T10:39:37;8.88;;;3.95;;
29202;SDS011;16245;51.170;4.884;2022-10-10T10:45:02;8.40;;;3.58;;
29202;SDS011;16245;51.170;4.884;2022-10-10T10:50:33;8.02;;;3.78;;
29202;SDS011;16245;51.170;4.884;2022-10-10T11:01:38;11.85;;;3.90;;
29202;SDS011;16245;51.170;4.884;2022-10-10T11:07:06;8.80;;;4.30;;
29202;SDS011;16245;51.170;4.884;2022-10-10T11:15:22;12.35;;;4.07;;
29202;SDS011;16245;51.170;4.884;2022-10-10T11:20:37;18.70;;;5.13;;
29202;SDS011;16245;51.170;4.884;2022-10-10T11:23:17;13.25;;;4.57;;
29202;SDS011;16245;51.170;4.884;2022-10-10T11:26:02;9.60;;;3.88;;
29202;SDS011;16245;51.170;4.884;2022-10-10T11:31:14;10.13;;;4.03;;
29202;SDS011;16245;51.170;4.884;2022-10-10T11:34:01;11.43;;;4.20;;
29202;SDS011;16245;51.170;4.884;2022-10-10T11:36:33;9.90;;;3.72;;
29202;SDS011;16245;51.170;4.884;2022-10-10T11:39:10;12.02;;;3.90;;
29202;SDS011;16245;51.170;4.884;2022-10-10T11:41:38;8.35;;;3.50;;
29202;SDS011;16245;51.170;4.884;2022-10-10T11:44:42;10.80;;;3.63;;
29202;SDS011;16245;51.170;4.884;2022-10-10T11:47:06;9.65;;;3.35;;
29202;SDS011;16245;51.170;4.884;2022-10-10T11:49:35;12.00;;;3.45;;
29202;SDS011;16245;51.170;4.884;2022-10-10T11:52:22;14.70;;;3.95;;
29202;SDS011;16245;51.170;4.884;2022-10-10T11:54:54;11.07;;;3.47;;
29202;SDS011;16245;51.170;4.884;2022-10-10T12:00:12;9.95;;;3.67;;
29202;SDS011;16245;51.170;4.884;2022-10-10T12:02:40;10.82;;;3.50;;
29202;SDS011;16245;51.170;4.884;2022-10-10T12:10:21;8.07;;;3.15;;
29202;SDS011;16245;51.170;4.884;2022-10-10T12:12:52;8.13;;;3.47;;
29202;SDS011;16245;51.170;4.884;2022-10-10T12:15:42;10.18;;;3.70;;
29202;SDS011;16245;51.170;4.884;2022-10-10T12:18:21;8.57;;;3.15;;
29202;SDS011;16245;51.170;4.884;2022-10-10T12:21:07;8.98;;;3.28;;
29202;SDS011;16245;51.170;4.884;2022-10-10T12:23:35;9.60;;;3.33;;
29202;SDS011;16245;51.170;4.884;2022-10-10T12:26:02;9.68;;;2.97;;
29202;SDS011;16245;51.170;4.884;2022-10-10T12:29:13;8.13;;;3.40;;
29202;SDS011;16245;51.170;4.884;2022-10-10T12:31:31;7.88;;;3.33;;
29202;SDS011;16245;51.170;4.884;2022-10-10T12:49:48;6.75;;;3.22;;
29202;SDS011;16245;51.170;4.884;2022-10-10T12:52:21;8.10;;;3.83;;
29202;SDS011;16245;51.170;4.884;2022-10-10T12:54:51;7.90;;;3.00;;
29202;SDS011;16245;51.170;4.884;2022-10-10T12:59:44;11.82;;;4.15;;
29202;SDS011;16245;51.170;4.884;2022-10-10T13:02:15;7.95;;;3.60;;
29202;SDS011;16245;51.170;4.884;2022-10-10T13:04:45;9.90;;;3.35;;
29202;SDS011;16245;51.170;4.884;2022-10-10T13:07:14;10.35;;;4.20;;
29202;SDS011;16245;51.170;4.884;2022-10-10T13:09:43;11.05;;;3.97;;
29202;SDS011;16245;51.170;4.884;2022-10-10T13:12:25;13.48;;;4.53;;
29202;SDS011;16245;51.170;4.884;2022-10-10T13:14:54;8.98;;;4.30;;
29202;SDS011;16245;51.170;4.884;2022-10-10T13:19:58;8.27;;;4.85;;
29202;SDS011;16245;51.170;4.884;2022-10-10T13:22:25;13.48;;;5.55;;
29202;SDS011;16245;51.170;4.884;2022-10-10T13:24:52;12.93;;;5.40;;
29202;SDS011;16245;51.170;4.884;2022-10-10T13:27:26;9.63;;;6.55;;
29202;SDS011;16245;51.170;4.884;2022-10-10T13:29:55;19.25;;;7.03;;
29202;SDS011;16245;51.170;4.884;2022-10-10T13:32:23;13.70;;;6.65;;
29202;SDS011;16245;51.170;4.884;2022-10-10T13:34:58;12.68;;;6.72;;
29202;SDS011;16245;51.170;4.884;2022-10-10T13:37:26;14.27;;;6.85;;
29202;SDS011;16245;51.170;4.884;2022-10-10T13:39:52;12.57;;;6.22;;
29202;SDS011;16245;51.170;4.884;2022-10-10T13:55:48;9.32;;;6.43;;
29202;SDS011;16245;51.170;4.884;2022-10-10T13:58:15;15.00;;;8.00;;
29202;SDS011;16245;51.170;4.884;2022-10-10T14:00:41;10.82;;;6.68;;
29202;SDS011;16245;51.170;4.884;2022-10-10T14:03:13;10.43;;;5.78;;
29202;SDS011;16245;51.170;4.884;2022-10-10T14:05:43;17.75;;;6.22;;
29202;SDS011;16245;51.170;4.884;2022-10-10T14:08:17;9.48;;;5.20;;
29202;SDS011;16245;51.170;4.884;2022-10-10T14:11:22;13.50;;;5.68;;
29202;SDS011;16245;51.170;4.884;2022-10-10T14:13:45;18.95;;;4.80;;
29202;SDS011;16245;51.170;4.884;2022-10-10T14:18:43;11.75;;;5.43;;
29202;SDS011;16245;51.170;4.884;2022-10-10T14:21:10;10.18;;;6.07;;
29202;SDS011;16245;51.170;4.884;2022-10-10T14:23:36;10.05;;;5.70;;
29202;SDS011;16245;51.170;4.884;2022-10-10T14:26:03;11.63;;;5.40;;
29202;SDS011;16245;51.170;4.884;2022-10-10T14:28:30;10.02;;;5.20;;
29202;SDS011;16245;51.170;4.884;2022-10-10T14:30:58;12.55;;;4.60;;
29202;SDS011;16245;51.170;4.884;2022-10-10T14:33:25;10.38;;;4.82;;
29202;SDS011;16245;51.170;4.884;2022-10-10T14:35:52;14.13;;;4.60;;
29202;SDS011;16245;51.170;4.884;2022-10-10T14:38:20;9.30;;;4.30;;
29202;SDS011;16245;51.170;4.884;2022-10-10T14:40:46;10.90;;;4.47;;
29202;SDS011;16245;51.170;4.884;2022-10-10T14:43:13;8.05;;;4.18;;
29202;SDS011;16245;51.170;4.884;2022-10-10T14:45:40;6.13;;;3.28;;
29202;SDS011;16245;51.170;4.884;2022-10-10T14:48:08;6.15;;;2.78;;
29202;SDS011;16245;51.170;4.884;2022-10-10T14:50:42;6.50;;;2.70;;
29202;SDS011;16245;51.170;4.884;2022-10-10T14:53:11;7.95;;;2.78;;
29202;SDS011;16245;51.170;4.884;2022-10-10T14:55:38;4.85;;;2.15;;
29202;SDS011;16245;51.170;4.884;2022-10-10T14:58:10;8.55;;;2.20;;
29202;SDS011;16245;51.170;4.884;2022-10-10T15:00:40;4.53;;;2.50;;
29202;SDS011;16245;51.170;4.884;2022-10-10T15:03:06;6.30;;;2.22;;
29202;SDS011;16245;51.170;4.884;2022-10-10T15:05:32;6.20;;;2.45;;
29202;SDS011;16245;51.170;4.884;2022-10-10T15:07:57;7.72;;;2.20;;
29202;SDS011;16245;51.170;4.884;2022-10-10T15:10:23;4.65;;;2.78;;
29202;SDS011;16245;51.170;4.884;2022-10-10T15:12:49;4.03;;;2.38;;
29202;SDS011;16245;51.170;4.884;2022-10-10T15:15:14;3.05;;;2.55;;
29202;SDS011;16245;51.170;4.884;2022-10-10T15:17:40;5.40;;;2.38;;
29202;SDS011;16245;51.170;4.884;2022-10-10T15:20:06;2.88;;;1.83;;
29202;SDS011;16245;51.170;4.884;2022-10-10T15:22:33;5.07;;;3.13;;
29202;SDS011;16245;51.170;4.884;2022-10-10T15:24:59;5.78;;;2.45;;
29202;SDS011;16245;51.170;4.884;2022-10-10T15:27:25;4.13;;;1.83;;
29202;SDS011;16245;51.170;4.884;2022-10-10T15:29:56;7.78;;;3.45;;
29202;SDS011;16245;51.170;4.884;2022-10-10T15:32:22;3.17;;;2.45;;
29202;SDS011;16245;51.170;4.884;2022-10-10T15:34:48;2.88;;;1.60;;
29202;SDS011;16245;51.170;4.884;2022-10-10T15:37:14;2.97;;;2.25;;
29202;SDS011;16245;51.170;4.884;2022-10-10T15:39:40;2.90;;;1.73;;
29202;SDS011;16245;51.170;4.884;2022-10-10T15:42:08;2.17;;;0.98;;
29202;SDS011;16245;51.170;4.884;2022-10-10T15:44:34;6.35;;;2.58;;
29202;SDS011;16245;51.170;4.884;2022-10-10T15:47:00;2.45;;;1.42;;
29202;SDS011;16245;51.170;4.884;2022-10-10T15:49:25;5.00;;;2.03;;
29202;SDS011;16245;51.170;4.884;2022-10-10T15:51:51;3.72;;;2.28;;
29202;SDS011;16245;51.170;4.884;2022-10-10T15:54:17;5.50;;;2.00;;
29202;SDS011;16245;51.170;4.884;2022-10-10T15:56:42;8.68;;;5.40;;
29202;SDS011;16245;51.170;4.884;2022-10-10T15:59:09;6.55;;;3.95;;
29202;SDS011;16245;51.170;4.884;2022-10-10T16:01:37;5.45;;;1.50;;
29202;SDS011;16245;51.170;4.884;2022-10-10T16:04:03;9.77;;;3.75;;
29202;SDS011;16245;51.170;4.884;2022-10-10T16:06:30;5.95;;;1.83;;
29202;SDS011;16245;51.170;4.884;2022-10-10T16:08:57;11.25;;;8.45;;
29202;SDS011;16245;51.170;4.884;2022-10-10T16:11:22;19.10;;;11.98;;
29202;SDS011;16245;51.170;4.884;2022-10-10T16:13:50;13.13;;;6.40;;
29202;SDS011;16245;51.170;4.884;2022-10-10T16:16:18;5.05;;;2.30;;
29202;SDS011;16245;51.170;4.884;2022-10-10T16:18:45;5.13;;;1.90;;
29202;SDS011;16245;51.170;4.884;2022-10-10T16:21:13;6.72;;;2.08;;
29202;SDS011;16245;51.170;4.884;2022-10-10T16:23:42;8.50;;;4.55;;
29202;SDS011;16245;51.170;4.884;2022-10-10T16:26:12;6.53;;;2.03;;
29202;SDS011;16245;51.170;4.884;2022-10-10T16:28:39;4.38;;;2.08;;
29202;SDS011;16245;51.170;4.884;2022-10-10T16:31:06;6.30;;;3.78;;
29202;SDS011;16245;51.170;4.884;2022-10-10T16:33:34;5.63;;;2.17;;
29202;SDS011;16245;51.170;4.884;2022-10-10T16:36:06;5.15;;;2.13;;
29202;SDS011;16245;51.170;4.884;2022-10-10T16:38:37;11.05;;;3.53;;
29202;SDS011;16245;51.170;4.884;2022-10-10T16:41:03;8.18;;;2.28;;
29202;SDS011;16245;51.170;4.884;2022-10-10T16:43:30;8.27;;;2.33;;
29202;SDS011;16245;51.170;4.884;2022-10-10T16:45:59;7.93;;;1.92;;
29202;SDS011;16245;51.170;4.884;2022-10-10T16:48:26;10.68;;;2.05;;
29202;SDS011;16245;51.170;4.884;2022-10-10T16:50:54;5.93;;;2.33;;
29202;SDS011;16245;51.170;4.884;2022-10-10T16:53:19;12.15;;;2.53;;
29202;SDS011;16245;51.170;4.884;2022-10-10T16:55:45;7.90;;;1.85;;